Latest Weather Observations for Cato Island

IDQ60801

Issued at 6:02 pm EST Saturday 28 May 2016 (issued every 30 minutes, with the page automatically refreshed every 10 minutes)

About weather observations | Map of weather stations | Latest weather observations for QLD | Other Formats
Station Details ID: 200601 Name: CATO ISLAND Lat: -23.25 Lon: 155.54 Height: 6.3 m
Data from the previous 72 hours. | See also: Recent months for locations in Queensland
Date/Time
EST
Temp
°C
App
Temp
°C
Dew
Point
Rel
Hum
%
Delta-T
°C
Wind Press
QNH
hPa
Press
MSL
hPa
Rain
since 9 am
mm
Dir
 
Spd
km/h
Gust
km/h
Spd
kts
Gust
kts
28/06:00pm 23.3 - - - - W 15 17 8 9 1013.3 - -
28/05:30pm 23.3 - - - - WSW 11 15 6 8 1012.9 - -
28/05:00pm 23.7 - - - - WSW 13 17 7 9 1012.6 1012.6 -
28/04:30pm 24.5 - - - - WSW 19 22 10 12 1012.4 - -
28/04:00pm 25.1 - - - - WSW 17 20 9 11 1012.1 1012.1 -
28/03:30pm 25.7 - - - - WSW 15 19 8 10 1012.0 - -
28/03:00pm 26.4 - - - - SW 15 17 8 9 1011.8 1011.8 -
28/02:30pm 26.2 - - - - WSW 11 13 6 7 1011.7 - -
28/02:00pm 26.6 - - - - SW 17 20 9 11 1011.8 1011.8 -
28/01:30pm 27.8 - - - - WNW 19 24 10 13 1011.7 - -
28/01:00pm 27.7 - - - - W 19 22 10 12 1011.8 1011.8 -
28/12:30pm 28.1 - - - - W 17 22 9 12 1012.0 - -
28/12:00pm 27.4 - - - - WNW 17 20 9 11 1012.3 1012.3 -
28/11:30am 27.6 - - - - W 7 9 4 5 1012.5 - -
28/11:00am 26.6 - - - - SSW 7 9 4 5 1012.6 1012.6 -
28/10:30am 26.5 - - - - SSW 9 13 5 7 1013.2 - -
28/10:00am 27.3 - - - - WSW 13 19 7 10 1013.4 1013.4 -
28/09:30am 27.3 - - - - SW 20 24 11 13 1013.8 - -
28/09:00am 27.1 - - - - WSW 19 22 10 12 1014.0 1014.0 -
28/08:30am 26.9 - - - - WSW 15 19 8 10 1013.7 - -
28/08:00am 26.5 - - - - WSW 15 20 8 11 1013.6 1013.6 -
28/07:30am 25.9 - - - - WSW 19 22 10 12 1013.6 - -
28/07:00am 25.1 - - - - WSW 19 20 10 11 1013.2 1013.2 -
28/06:30am 24.2 - - - - WSW 17 20 9 11 1012.8 - -
28/06:00am 24.2 - - - - WSW 19 22 10 12 1012.6 1012.6 -
28/05:30am 24.3 - - - - WSW 19 20 10 11 1012.2 - -
28/05:00am 24.6 - - - - WSW 22 28 12 15 1012.1 1012.1 -
28/04:30am 24.4 - - - - WSW 20 24 11 13 1011.7 - -
28/04:00am 24.0 - - - - WSW 22 26 12 14 1011.5 1011.5 -
28/03:30am 23.8 - - - - WSW 24 30 13 16 1011.3 - -
28/03:00am 23.4 - - - - WSW 39 46 21 25 1011.4 1011.3 -
28/02:43am 24.7 - - - - SW 33 43 18 23 1011.3 - -
28/02:30am 25.3 - - - - W 37 44 20 24 1011.1 - -
28/02:00am 25.8 - - - - W 39 44 21 24 1011.2 1011.2 -
28/01:30am 25.8 - - - - WNW 37 43 20 23 1010.8 - -
28/01:00am 25.7 - - - - NW 39 46 21 25 1010.8 1010.8 -
28/12:30am 25.6 - - - - NW 39 43 21 23 1010.3 - -
28/12:00am 25.6 - - - - NW 37 43 20 23 1010.4 1010.4 -
 
Date/Time
EST
Temp
°C
App
Temp
°C
Dew
Point
Rel
Hum
%
Delta-T
°C
Wind Press
QNH
hPa
Press
MSL
hPa
Rain
since 9 am
mm
Dir
 
Spd
km/h
Gust
km/h
Spd
kts
Gust
kts
27/11:30pm 25.6 - - - - NW 39 44 21 24 1010.7 - -
27/11:00pm 25.7 - - - - NW 41 46 22 25 1011.0 1010.9 -
27/10:30pm 25.6 - - - - NW 41 46 22 25 1011.1 - -
27/10:00pm 25.7 - - - - NW 41 48 22 26 1010.9 1010.9 -
27/09:30pm 25.7 - - - - NW 41 46 22 25 1011.0 - -
27/09:00pm 25.7 - - - - NW 44 52 24 28 1010.8 1010.8 -
27/08:30pm 25.7 - - - - NW 44 52 24 28 1010.9 - -
27/08:00pm 25.8 - - - - NW 43 52 23 28 1010.8 1010.8 -
27/07:30pm 25.6 - - - - NW 43 50 23 27 1010.4 - -
27/07:00pm 25.7 - - - - NW 43 50 23 27 1010.3 1010.3 -
27/06:30pm 25.7 - - - - NW 44 52 24 28 1010.1 - -
27/06:00pm 25.7 - - - - NW 48 56 26 30 1009.9 1009.9 -
27/05:30pm 25.6 - - - - NW 48 56 26 30 1009.1 - -
27/05:00pm 25.6 - - - - NW 46 54 25 29 1009.5 1009.4 -
27/04:30pm 25.9 - - - - NW 46 54 25 29 1009.5 - -
27/04:00pm 26.2 - - - - WNW 46 54 25 29 1009.3 1009.3 -
27/03:30pm 26.4 - - - - NW 46 54 25 29 1009.3 - -
27/03:00pm 26.4 - - - - NW 48 56 26 30 1009.0 1009.1 -
27/02:30pm 26.6 - - - - NW 50 57 27 31 1009.1 - -
27/02:00pm 26.8 - - - - NW 48 56 26 30 1009.3 1009.4 -
27/01:30pm 27.0 - - - - NW 48 54 26 29 1009.5 - -
27/01:00pm 27.0 - - - - NW 50 59 27 32 1009.8 1009.8 -
27/12:30pm 27.1 - - - - NW 48 57 26 31 1010.1 - -
27/12:00pm 26.5 - - - - NW 50 57 27 31 1010.5 1010.5 -
27/11:30am 26.7 - - - - NW 50 57 27 31 1010.8 - -
27/11:00am 26.6 - - - - NNW 50 57 27 31 1011.1 1011.0 -
27/10:30am 26.3 - - - - NNW 50 56 27 30 1011.6 - -
27/10:00am 26.4 - - - - NNW 46 56 25 30 1012.1 1012.0 -
27/09:30am 26.3 - - - - NNW 44 54 24 29 1012.3 - -
27/09:00am 26.2 - - - - NNW 46 52 25 28 1012.5 1012.5 -
27/08:30am 26.1 - - - - NNW 41 46 22 25 1012.7 - -
27/08:00am 25.8 - - - - NW 44 52 24 28 1012.6 1012.6 -
27/07:30am 25.6 - - - - NW 43 52 23 28 1012.3 - -
27/07:00am 25.4 - - - - NW 43 50 23 27 1012.1 1012.1 -
27/06:30am 25.2 - - - - NW 39 50 21 27 1012.0 - -
27/06:00am 25.0 - - - - NW 43 48 23 26 1011.6 1011.6 -
27/05:30am 25.0 - - - - NNW 44 52 24 28 1011.5 - -
27/05:00am 24.9 - - - - NNW 46 54 25 29 1011.2 1011.2 -
27/04:30am 24.7 - - - - NNW 43 52 23 28 1011.1 - -
27/04:00am 24.4 - - - - NNW 43 50 23 27 1011.1 1011.1 -
27/03:30am 24.7 - - - - NNW 43 50 23 27 1011.3 - -
27/03:00am 24.5 - - - - NNW 39 46 21 25 1011.6 1011.6 -
27/02:30am 24.4 - - - - NNW 39 44 21 24 1011.6 - -
27/02:00am 24.4 - - - - NNW 37 44 20 24 1012.1 1012.1 -
27/01:30am 24.5 - - - - N 41 46 22 25 1012.4 - -
27/01:00am 24.4 - - - - N 39 44 21 24 1012.6 1012.5 -
27/12:30am 24.5 - - - - N 41 48 22 26 1012.7 - -
27/12:00am 24.5 - - - - N 41 52 22 28 1012.7 1012.7 -
 
Date/Time
EST
Temp
°C
App
Temp
°C
Dew
Point
Rel
Hum
%
Delta-T
°C
Wind Press
QNH
hPa
Press
MSL
hPa
Rain
since 9 am
mm
Dir
 
Spd
km/h
Gust
km/h
Spd
kts
Gust
kts
26/11:30pm 24.5 - - - - N 41 46 22 25 1013.0 - -
26/11:00pm 24.4 - - - - N 37 43 20 23 1013.5 1013.5 -
26/10:30pm 24.2 - - - - N 33 41 18 22 1013.7 - -
26/10:00pm 24.1 - - - - N 33 41 18 22 1014.2 1014.2 -
26/09:30pm 24.3 - - - - N 33 41 18 22 1014.4 - -
26/09:00pm 24.1 - - - - N 30 35 16 19 1014.6 1014.6 -
26/08:30pm 24.3 - - - - N 28 33 15 18 1015.1 - -
26/08:00pm 24.2 - - - - N 24 30 13 16 1015.0 1015.0 -
26/07:30pm 24.1 - - - - N 22 28 12 15 1014.7 - -
26/07:00pm 23.9 - - - - N 24 28 13 15 1014.6 1014.6 -
26/06:30pm 23.9 - - - - N 22 30 12 16 1014.1 - -
26/06:00pm 23.7 - - - - N 20 26 11 14 1013.9 1013.9 -
26/05:30pm 23.6 - - - - N 20 26 11 14 1013.6 - -
26/05:00pm 23.6 - - - - N 20 26 11 14 1013.4 1013.4 -
26/04:30pm 24.1 - - - - N 20 26 11 14 1013.4 - -
26/04:00pm 24.1 - - - - N 19 24 10 13 1013.1 1013.1 -
26/03:30pm 24.8 - - - - N 19 26 10 14 1013.3 - -
26/03:00pm 25.1 - - - - N 17 24 9 13 1013.3 1013.3 -
26/02:30pm 25.6 - - - - N 15 19 8 10 1013.6 - -
26/02:00pm 26.0 - - - - NNE 15 20 8 11 1013.8 1013.8 -
26/01:30pm 25.3 - - - - N 15 20 8 11 1014.1 - -
26/01:00pm 26.1 - - - - N 11 15 6 8 1014.3 1014.3 -
26/12:30pm 26.0 - - - - NNE 11 15 6 8 1014.8 - -
26/12:00pm 26.4 - - - - NNE 11 15 6 8 1015.5 1015.5 -
26/11:30am 26.3 - - - - NNE 9 11 5 6 1016.2 - -
26/11:00am 25.8 - - - - NNE 9 13 5 7 1016.6 1016.6 -
26/10:30am 26.1 - - - - NNE 11 15 6 8 1016.9 - -
26/10:00am 25.7 - - - - NE 13 19 7 10 1017.3 1017.3 -
26/09:30am 25.8 - - - - NE 11 17 6 9 1017.3 - -
26/09:00am 25.6 - - - - NNE 9 13 5 7 1017.5 1017.5 -
26/08:30am 25.1 - - - - NNE 9 13 5 7 1017.5 - -
26/08:00am 24.1 - - - - N 11 15 6 8 1017.4 1017.4 -
26/07:30am 24.0 - - - - NE 11 17 6 9 1017.1 - -
26/07:00am 23.1 - - - - ENE 13 17 7 9 1016.8 1016.9 -
26/06:30am 22.7 - - - - NE 13 17 7 9 1016.5 - -
26/06:00am 22.3 - - - - ENE 15 17 8 9 1016.4 1016.4 -
26/05:30am 22.7 - - - - CALM 0 6 0 3 1016.3 - -
26/05:00am 22.2 - - - - CALM 0 6 0 3 1016.0 1016.0 -
26/04:30am 22.2 - - - - CALM 0 6 0 3 1015.9 - -
26/04:00am 22.8 - - - - CALM 0 4 0 2 1016.0 1016.0 -
26/03:30am 22.4 - - - - CALM 0 4 0 2 1016.0 - -
26/03:00am 22.7 - - - - CALM 0 6 0 3 1015.9 1015.9 -
26/02:30am 22.1 - - - - CALM 0 4 0 2 1016.1 - -
26/02:00am 23.0 - - - - CALM 0 4 0 2 1016.3 1016.3 -
26/01:30am 22.6 - - - - CALM 0 4 0 2 1016.6 - -
26/01:00am 23.1 - - - - CALM 0 6 0 3 1016.9 1016.9 -
26/12:30am 23.2 - - - - CALM 0 7 0 4 1016.9 - -
26/12:00am 23.3 - - - - CALM 0 4 0 2 1017.0 1017.0 -
 
Date/Time
EST
Temp
°C
App
Temp
°C
Dew
Point
Rel
Hum
%
Delta-T
°C
Wind Press
QNH
hPa
Press
MSL
hPa
Rain
since 9 am
mm
Dir
 
Spd
km/h
Gust
km/h
Spd
kts
Gust
kts
25/11:30pm 23.4 - - - - CALM 0 4 0 2 1017.1 - -
25/11:00pm 23.4 - - - - ESE 2 6 1 3 1017.2 1017.2 -
25/10:30pm 23.5 - - - - ESE 2 6 1 3 1017.3 - -
25/10:00pm 23.5 - - - - CALM 0 6 0 3 1017.0 1017.0 -
25/09:30pm 23.5 - - - - CALM 0 4 0 2 1017.2 - -
25/09:00pm 23.6 - - - - CALM 0 2 0 1 1017.2 1017.2 -
25/08:30pm 23.6 - - - - CALM 0 4 0 2 1017.1 - -
25/08:00pm 23.6 - - - - SE 2 6 1 3 1016.7 1016.7 -
25/07:30pm 23.8 - - - - SE 2 6 1 3 1016.5 - -
25/07:00pm 23.7 - - - - ESE 2 6 1 3 1016.4 1016.4 -
25/06:30pm 23.7 - - - - SE 2 6 1 3 1016.4 - -

Other Formats:

Comma delimited format used in spreadsheet applications
http://www.bom.gov.au/fwo/IDQ60801/IDQ60801.94394.axf

JavaScript Object Notation format (JSON) in row-major order
http://www.bom.gov.au/fwo/IDQ60801/IDQ60801.94394.json